Huvudsida
METAR-TAF:

METAR-TAF

Flygplatser :

Malmö Airport

Malmö, Sverige

latitud: 55-33N, longitud: 013-22E, höjd: 106 m

Aktuellt väderrapport

Denna rapport gjordes för 33 minuter sedan, klockan 14:20 UTC
Vind 14 kt från väst/nordväst
Temperatur 3°C
Fuktighet 75%
Tryck 1019 hPa
Sikt 10 km eller mer
Inga moln under 1 500 m eller inga cumulonimbus

METAR: ESMS 211420Z 30014KT CAVOK 03/M01 Q1019

Tid: 15:53 (14:53 UTC)

Väderprognos

Denna rapport gjordes för 3 timmar och 47 minuter sedan, klockan 11:06 UTC
Prognos gäller från 21 kl. 12 UTC till 22 kl. 12 UTC
Vind 8 kt från nordväst
Sikt 10 km eller mer
Få moln på en höjd av 3000 ft
Temporärt
från 21 kl. 16 UTC till 21 kl. 24 UTC
Sikt: 3000 m
Brutna moln på en höjd av 600 ft
fuktdis

TAF: ESMS 211106Z 2112/2212 32008KT 9999 FEW030 TEMPO 2116/2124 3000 BR BKN006

Aktuella väderrapporter och prognoser från 4000 flygplatser (METAR- och TAF-rapporter).

De tillgängliga stationerna syns som gula och röda prickar på kartan.

För musen över prickarna för att se namnen på stationerna.

Klicka sedan för att få väderrapporter och prognoser.

För att ändra kartan: Klicka på de gröna knapparna med ett svart kors på för att zooma in; den gröna knappen med ett streck på för att zooma ut; eller på de gröna pilarna för angränsande kartor.


METAR-TAF: